<?xml version="1.0" encoding="UTF-8" standalone="no" ?><gpx xmlns="http://www.topografix.com/GPX/1/1" xmlns:gpxx="http://www.garmin.com/xmlschemas/GpxExtensions/v3" xmlns:wptx1="http://www.garmin.com/xmlschemas/WaypointExtension/v1" xmlns:gpxtpx="http://www.garmin.com/xmlschemas/TrackPointExtension/v1" creator="GuideVTT.com" version="1.1" xmlns:xsi="http://www.w3.org/2001/XMLSchema-instance" xsi:schemaLocation="http://www.topografix.com/GPX/1/1 http://www.topografix.com/GPX/1/1/gpx.xsd http://www.garmin.com/xmlschemas/GpxExtensions/v3 http://www8.garmin.com/xmlschemas/GpxExtensionsv3.xsd http://www.garmin.com/xmlschemas/WaypointExtension/v1 http://www8.garmin.com/xmlschemas/WaypointExtensionv1.xsd http://www.garmin.com/xmlschemas/TrackPointExtension/v1 http://www.garmin.com/xmlschemas/TrackPointExtensionv1.xsd">
<metadata><link href="http://www.garmin.com"><text>Garmin International</text></link><time>2013-06-22T15:13:50Z</time></metadata>
<trk><name>ne_tn_753.gpx</name><extensions><gpxx:TrackExtension><gpxx:DisplayColor>Cyan</gpxx:DisplayColor></gpxx:TrackExtension></extensions><trkseg>
<trkpt lat="47.09808939" lon="6.82382339"><ele></ele><time>2014-4-16T19:7:40Z</time></trkpt>
<trkpt lat="47.09880501" lon="6.82307751"><ele></ele><time>2014-4-16T19:7:43Z</time></trkpt>
<trkpt lat="47.09707155" lon="6.82021270"><ele></ele><time>2014-4-16T19:7:46Z</time></trkpt>
<trkpt lat="47.09846400" lon="6.81820757"><ele></ele><time>2014-4-16T19:7:49Z</time></trkpt>
<trkpt lat="47.09935670" lon="6.81694581"><ele></ele><time>2014-4-16T19:7:52Z</time></trkpt>
<trkpt lat="47.10010840" lon="6.81456595"><ele></ele><time>2014-4-16T19:7:55Z</time></trkpt>
<trkpt lat="47.10015451" lon="6.81477618"><ele></ele><time>2014-4-16T19:7:58Z</time></trkpt>
<trkpt lat="47.10020413" lon="6.81563185"><ele></ele><time>2014-4-16T19:8:1Z</time></trkpt>
<trkpt lat="47.10047504" lon="6.81582630"><ele></ele><time>2014-4-16T19:8:4Z</time></trkpt>
<trkpt lat="47.10164506" lon="6.81594444"><ele></ele><time>2014-4-16T19:8:7Z</time></trkpt>
<trkpt lat="47.10285284" lon="6.81639148"><ele></ele><time>2014-4-16T19:8:10Z</time></trkpt>
<trkpt lat="47.10393462" lon="6.81682684"><ele></ele><time>2014-4-16T19:8:13Z</time></trkpt>
<trkpt lat="47.10407647" lon="6.81644315"><ele></ele><time>2014-4-16T19:8:16Z</time></trkpt>
<trkpt lat="47.10456182" lon="6.81637164"><ele></ele><time>2014-4-16T19:8:19Z</time></trkpt>
<trkpt lat="47.10488670" lon="6.81656548"><ele></ele><time>2014-4-16T19:8:22Z</time></trkpt>
<trkpt lat="47.10506588" lon="6.81643166"><ele></ele><time>2014-4-16T19:8:25Z</time></trkpt>
<trkpt lat="47.10505475" lon="6.81603656"><ele></ele><time>2014-4-16T19:8:28Z</time></trkpt>
<trkpt lat="47.10523285" lon="6.81570513"><ele></ele><time>2014-4-16T19:8:31Z</time></trkpt>
<trkpt lat="47.10518467" lon="6.81511285"><ele></ele><time>2014-4-16T19:8:34Z</time></trkpt>
<trkpt lat="47.10613703" lon="6.81490415"><ele></ele><time>2014-4-16T19:8:37Z</time></trkpt>
<trkpt lat="47.10658490" lon="6.81455640"><ele></ele><time>2014-4-16T19:8:40Z</time></trkpt>
<trkpt lat="47.10662529" lon="6.81371276"><ele></ele><time>2014-4-16T19:8:43Z</time></trkpt>
<trkpt lat="47.10616406" lon="6.81325703"><ele></ele><time>2014-4-16T19:8:46Z</time></trkpt>
<trkpt lat="47.10621552" lon="6.81279532"><ele></ele><time>2014-4-16T19:8:49Z</time></trkpt>
<trkpt lat="47.10692358" lon="6.81232593"><ele></ele><time>2014-4-16T19:8:52Z</time></trkpt>
<trkpt lat="47.10729021" lon="6.81192640"><ele></ele><time>2014-4-16T19:8:55Z</time></trkpt>
<trkpt lat="47.10773778" lon="6.81152592"><ele></ele><time>2014-4-16T19:8:58Z</time></trkpt>
<trkpt lat="47.10845549" lon="6.81117497"><ele></ele><time>2014-4-16T19:9:1Z</time></trkpt>
<trkpt lat="47.10862351" lon="6.81064600"><ele></ele><time>2014-4-16T19:9:4Z</time></trkpt>
<trkpt lat="47.10835805" lon="6.80980591"><ele></ele><time>2014-4-16T19:9:7Z</time></trkpt>
<trkpt lat="47.10790501" lon="6.80920518"><ele></ele><time>2014-4-16T19:9:10Z</time></trkpt>
<trkpt lat="47.10749779" lon="6.80876202"><ele></ele><time>2014-4-16T19:9:13Z</time></trkpt>
<trkpt lat="47.10745029" lon="6.80830145"><ele></ele><time>2014-4-16T19:9:16Z</time></trkpt>
<trkpt lat="47.10766248" lon="6.80762704"><ele></ele><time>2014-4-16T19:9:19Z</time></trkpt>
<trkpt lat="47.10721928" lon="6.80718432"><ele></ele><time>2014-4-16T19:9:22Z</time></trkpt>
<trkpt lat="47.10698216" lon="6.80659425"><ele></ele><time>2014-4-16T19:9:25Z</time></trkpt>
<trkpt lat="47.10716996" lon="6.80639441"><ele></ele><time>2014-4-16T19:9:28Z</time></trkpt>
<trkpt lat="47.10792370" lon="6.80605614"><ele></ele><time>2014-4-16T19:9:31Z</time></trkpt>
<trkpt lat="47.10797542" lon="6.80564711"><ele></ele><time>2014-4-16T19:9:34Z</time></trkpt>
<trkpt lat="47.10868346" lon="6.80517762"><ele></ele><time>2014-4-16T19:9:37Z</time></trkpt>
<trkpt lat="47.10935479" lon="6.80457679"><ele></ele><time>2014-4-16T19:9:40Z</time></trkpt>
<trkpt lat="47.10967539" lon="6.80399328"><ele></ele><time>2014-4-16T19:9:43Z</time></trkpt>
<trkpt lat="47.10904497" lon="6.80385582"><ele></ele><time>2014-4-16T19:9:46Z</time></trkpt>
<trkpt lat="47.10867372" lon="6.80341226"><ele></ele><time>2014-4-16T19:9:49Z</time></trkpt>
<trkpt lat="47.10890495" lon="6.80293521"><ele></ele><time>2014-4-16T19:9:52Z</time></trkpt>
<trkpt lat="47.10939791" lon="6.80261316"><ele></ele><time>2014-4-16T19:9:55Z</time></trkpt>
<trkpt lat="47.10961269" lon="6.80241298"><ele></ele><time>2014-4-16T19:9:58Z</time></trkpt>
<trkpt lat="47.10970462" lon="6.80114705"><ele></ele><time>2014-4-16T19:10:1Z</time></trkpt>
<trkpt lat="47.10937284" lon="6.79971489"><ele></ele><time>2014-4-16T19:10:4Z</time></trkpt>
<trkpt lat="47.10901912" lon="6.79919209"><ele></ele><time>2014-4-16T19:10:7Z</time></trkpt>
<trkpt lat="47.10819357" lon="6.79793714"><ele></ele><time>2014-4-16T19:10:10Z</time></trkpt>
<trkpt lat="47.10724931" lon="6.79636746"><ele></ele><time>2014-4-16T19:10:13Z</time></trkpt>
<trkpt lat="47.10651345" lon="6.79507199"><ele></ele><time>2014-4-16T19:10:16Z</time></trkpt>
<trkpt lat="47.10516808" lon="6.79416594"><ele></ele><time>2014-4-16T19:10:19Z</time></trkpt>
<trkpt lat="47.10457863" lon="6.79331671"><ele></ele><time>2014-4-16T19:10:22Z</time></trkpt>
<trkpt lat="47.10406493" lon="6.79154441"><ele></ele><time>2014-4-16T19:10:25Z</time></trkpt>
<trkpt lat="47.10375058" lon="6.79003320"><ele></ele><time>2014-4-16T19:10:28Z</time></trkpt>
<trkpt lat="47.10328782" lon="6.78773338"><ele></ele><time>2014-4-16T19:10:31Z</time></trkpt>
<trkpt lat="47.10323493" lon="6.78633759"><ele></ele><time>2014-4-16T19:10:34Z</time></trkpt>
<trkpt lat="47.10272420" lon="6.78510548"><ele></ele><time>2014-4-16T19:10:37Z</time></trkpt>
<trkpt lat="47.10186970" lon="6.78353508"><ele></ele><time>2014-4-16T19:10:40Z</time></trkpt>
<trkpt lat="47.10095298" lon="6.78209723"><ele></ele><time>2014-4-16T19:10:43Z</time></trkpt>
<trkpt lat="47.10005604" lon="6.78097533"><ele></ele><time>2014-4-16T19:10:46Z</time></trkpt>
<trkpt lat="47.10036670" lon="6.78024700"><ele></ele><time>2014-4-16T19:10:49Z</time></trkpt>
<trkpt lat="47.10049452" lon="6.77900715"><ele></ele><time>2014-4-16T19:10:52Z</time></trkpt>
<trkpt lat="47.09989475" lon="6.77794752"><ele></ele><time>2014-4-16T19:10:55Z</time></trkpt>
<trkpt lat="47.09926957" lon="6.77716485"><ele></ele><time>2014-4-16T19:10:58Z</time></trkpt>
<trkpt lat="47.09899518" lon="6.77637787"><ele></ele><time>2014-4-16T19:11:1Z</time></trkpt>
<trkpt lat="47.09907348" lon="6.77591586"><ele></ele><time>2014-4-16T19:11:4Z</time></trkpt>
<trkpt lat="47.09930430" lon="6.77538609"><ele></ele><time>2014-4-16T19:11:7Z</time></trkpt>
<trkpt lat="47.09907457" lon="6.77454587"><ele></ele><time>2014-4-16T19:11:10Z</time></trkpt>
<trkpt lat="47.09857636" lon="6.77394610"><ele></ele><time>2014-4-16T19:11:13Z</time></trkpt>
<trkpt lat="47.09803028" lon="6.77284637"><ele></ele><time>2014-4-16T19:11:16Z</time></trkpt>
<trkpt lat="47.09789070" lon="6.77204458"><ele></ele><time>2014-4-16T19:11:19Z</time></trkpt>
<trkpt lat="47.09756863" lon="6.77079721"><ele></ele><time>2014-4-16T19:11:22Z</time></trkpt>
<trkpt lat="47.09706703" lon="6.76961795"><ele></ele><time>2014-4-16T19:11:25Z</time></trkpt>
<trkpt lat="47.09656465" lon="6.76830699"><ele></ele><time>2014-4-16T19:11:28Z</time></trkpt>
<trkpt lat="47.09606687" lon="6.76778634"><ele></ele><time>2014-4-16T19:11:31Z</time></trkpt>
<trkpt lat="47.09547400" lon="6.76792548"><ele></ele><time>2014-4-16T19:11:34Z</time></trkpt>
<trkpt lat="47.09529303" lon="6.76774333"><ele></ele><time>2014-4-16T19:11:37Z</time></trkpt>
<trkpt lat="47.09493562" lon="6.76661503"><ele></ele><time>2014-4-16T19:11:40Z</time></trkpt>
<trkpt lat="47.09505507" lon="6.76550710"><ele></ele><time>2014-4-16T19:11:43Z</time></trkpt>
<trkpt lat="47.09492057" lon="6.76404672"><ele></ele><time>2014-4-16T19:11:46Z</time></trkpt>
<trkpt lat="47.09405649" lon="6.76242431"><ele></ele><time>2014-4-16T19:11:49Z</time></trkpt>
<trkpt lat="47.09332211" lon="6.76144572"><ele></ele><time>2014-4-16T19:11:52Z</time></trkpt>
<trkpt lat="47.09264479" lon="6.76099328"><ele></ele><time>2014-4-16T19:11:55Z</time></trkpt>
<trkpt lat="47.09201284" lon="6.76060614"><ele></ele><time>2014-4-16T19:11:58Z</time></trkpt>
<trkpt lat="47.09169220" lon="6.75962237"><ele></ele><time>2014-4-16T19:12:1Z</time></trkpt>
<trkpt lat="47.09088778" lon="6.75897402"><ele></ele><time>2014-4-16T19:12:4Z</time></trkpt>
<trkpt lat="47.08998910" lon="6.75911712"><ele></ele><time>2014-4-16T19:12:7Z</time></trkpt>
<trkpt lat="47.08931489" lon="6.75919152"><ele></ele><time>2014-4-16T19:12:10Z</time></trkpt>
<trkpt lat="47.08796095" lon="6.75840530"><ele></ele><time>2014-4-16T19:12:13Z</time></trkpt>
<trkpt lat="47.08727423" lon="6.75788722"><ele></ele><time>2014-4-16T19:12:16Z</time></trkpt>
<trkpt lat="47.08687465" lon="6.75724697"><ele></ele><time>2014-4-16T19:12:19Z</time></trkpt>
<trkpt lat="47.08610815" lon="6.75692747"><ele></ele><time>2014-4-16T19:12:22Z</time></trkpt>
<trkpt lat="47.08546484" lon="6.75614548"><ele></ele><time>2014-4-16T19:12:25Z</time></trkpt>
<trkpt lat="47.08469317" lon="6.75495689"><ele></ele><time>2014-4-16T19:12:28Z</time></trkpt>
<trkpt lat="47.08523832" lon="6.75435732"><ele></ele><time>2014-4-16T19:12:31Z</time></trkpt>
<trkpt lat="47.08536932" lon="6.75369717"><ele></ele><time>2014-4-16T19:12:34Z</time></trkpt>
<trkpt lat="47.08563570" lon="6.75311431"><ele></ele><time>2014-4-16T19:12:37Z</time></trkpt>
<trkpt lat="47.08640103" lon="6.75323622"><ele></ele><time>2014-4-16T19:12:40Z</time></trkpt>
<trkpt lat="47.08702401" lon="6.75362335"><ele></ele><time>2014-4-16T19:12:43Z</time></trkpt>
<trkpt lat="47.08734703" lon="6.75348752"><ele></ele><time>2014-4-16T19:12:46Z</time></trkpt>
<trkpt lat="47.08783742" lon="6.75275690"><ele></ele><time>2014-4-16T19:12:49Z</time></trkpt>
<trkpt lat="47.08846775" lon="6.75286737"><ele></ele><time>2014-4-16T19:12:52Z</time></trkpt>
<trkpt lat="47.08878067" lon="6.75254727"><ele></ele><time>2014-4-16T19:12:55Z</time></trkpt>
<trkpt lat="47.08926245" lon="6.75188259"><ele></ele><time>2014-4-16T19:12:58Z</time></trkpt>
<trkpt lat="47.08986113" lon="6.75271783"><ele></ele><time>2014-4-16T19:13:1Z</time></trkpt>
<trkpt lat="47.09003446" lon="6.75312391"><ele></ele><time>2014-4-16T19:13:4Z</time></trkpt>
<trkpt lat="47.09045057" lon="6.75351371"><ele></ele><time>2014-4-16T19:13:7Z</time></trkpt>
<trkpt lat="47.09081741" lon="6.75469439"><ele></ele><time>2014-4-16T19:13:10Z</time></trkpt>
<trkpt lat="47.09108608" lon="6.75449340"><ele></ele><time>2014-4-16T19:13:13Z</time></trkpt>
<trkpt lat="47.09116232" lon="6.75370217"><ele></ele><time>2014-4-16T19:13:16Z</time></trkpt>
<trkpt lat="47.09170824" lon="6.75323421"><ele></ele><time>2014-4-16T19:13:19Z</time></trkpt>
<trkpt lat="47.09274569" lon="6.75373462"><ele></ele><time>2014-4-16T19:13:22Z</time></trkpt>
<trkpt lat="47.09319981" lon="6.75446642"><ele></ele><time>2014-4-16T19:13:25Z</time></trkpt>
<trkpt lat="47.09405626" lon="6.75478478"><ele></ele><time>2014-4-16T19:13:28Z</time></trkpt>
<trkpt lat="47.09477896" lon="6.75530243"><ele></ele><time>2014-4-16T19:13:31Z</time></trkpt>
<trkpt lat="47.09541602" lon="6.75654564"><ele></ele><time>2014-4-16T19:13:34Z</time></trkpt>
<trkpt lat="47.09542070" lon="6.75733590"><ele></ele><time>2014-4-16T19:13:37Z</time></trkpt>
<trkpt lat="47.09595326" lon="6.75764526"><ele></ele><time>2014-4-16T19:13:40Z</time></trkpt>
<trkpt lat="47.09641947" lon="6.75890387"><ele></ele><time>2014-4-16T19:13:43Z</time></trkpt>
<trkpt lat="47.09669670" lon="6.76015172"><ele></ele><time>2014-4-16T19:13:46Z</time></trkpt>
<trkpt lat="47.09710682" lon="6.76105542"><ele></ele><time>2014-4-16T19:13:49Z</time></trkpt>
<trkpt lat="47.09764379" lon="6.76211560"><ele></ele><time>2014-4-16T19:13:52Z</time></trkpt>
<trkpt lat="47.09742396" lon="6.76297459"><ele></ele><time>2014-4-16T19:13:55Z</time></trkpt>
<trkpt lat="47.09760540" lon="6.76323575"><ele></ele><time>2014-4-16T19:13:58Z</time></trkpt>
<trkpt lat="47.09787524" lon="6.76323235"><ele></ele><time>2014-4-16T19:14:1Z</time></trkpt>
<trkpt lat="47.09823347" lon="6.76296438"><ele></ele><time>2014-4-16T19:14:4Z</time></trkpt>
<trkpt lat="47.09868312" lon="6.76294554"><ele></ele><time>2014-4-16T19:14:7Z</time></trkpt>
<trkpt lat="47.09931515" lon="6.76334593"><ele></ele><time>2014-4-16T19:14:10Z</time></trkpt>
<trkpt lat="47.10004874" lon="6.76419294"><ele></ele><time>2014-4-16T19:14:13Z</time></trkpt>
<trkpt lat="47.10040922" lon="6.76430696"><ele></ele><time>2014-4-16T19:14:16Z</time></trkpt>
<trkpt lat="47.10044808" lon="6.76326579"><ele></ele><time>2014-4-16T19:14:19Z</time></trkpt>
<trkpt lat="47.09948535" lon="6.76169717"><ele></ele><time>2014-4-16T19:14:22Z</time></trkpt>
<trkpt lat="47.09881975" lon="6.76170558"><ele></ele><time>2014-4-16T19:14:25Z</time></trkpt>
<trkpt lat="47.09858512" lon="6.76157681"><ele></ele><time>2014-4-16T19:14:28Z</time></trkpt>
<trkpt lat="47.09854565" lon="6.76098454"><ele></ele><time>2014-4-16T19:14:31Z</time></trkpt>
<trkpt lat="47.09785977" lon="6.75908319"><ele></ele><time>2014-4-16T19:14:34Z</time></trkpt>
<trkpt lat="47.09776593" lon="6.75842575"><ele></ele><time>2014-4-16T19:14:37Z</time></trkpt>
<trkpt lat="47.09798643" lon="6.75768529"><ele></ele><time>2014-4-16T19:14:40Z</time></trkpt>
<trkpt lat="47.09793646" lon="6.75684288"><ele></ele><time>2014-4-16T19:14:43Z</time></trkpt>
<trkpt lat="47.09761766" lon="6.75617514"><ele></ele><time>2014-4-16T19:14:46Z</time></trkpt>
<trkpt lat="47.09680510" lon="6.75567177"><ele></ele><time>2014-4-16T19:14:49Z</time></trkpt>
<trkpt lat="47.09756925" lon="6.75559617"><ele></ele><time>2014-4-16T19:14:52Z</time></trkpt>
<trkpt lat="47.09810853" lon="6.75552343"><ele></ele><time>2014-4-16T19:14:55Z</time></trkpt>
<trkpt lat="47.09859463" lon="6.75558310"><ele></ele><time>2014-4-16T19:14:58Z</time></trkpt>
<trkpt lat="47.09923082" lon="6.75516663"><ele></ele><time>2014-4-16T19:15:1Z</time></trkpt>
<trkpt lat="47.10008029" lon="6.75431272"><ele></ele><time>2014-4-16T19:15:4Z</time></trkpt>
<trkpt lat="47.10116975" lon="6.75599817"><ele></ele><time>2014-4-16T19:15:7Z</time></trkpt>
<trkpt lat="47.10190072" lon="6.75791220"><ele></ele><time>2014-4-16T19:15:10Z</time></trkpt>
<trkpt lat="47.10239885" lon="6.75848551"><ele></ele><time>2014-4-16T19:15:13Z</time></trkpt>
<trkpt lat="47.10307348" lon="6.76000512"><ele></ele><time>2014-4-16T19:15:16Z</time></trkpt>
<trkpt lat="47.10344848" lon="6.76105428"><ele></ele><time>2014-4-16T19:15:19Z</time></trkpt>
<trkpt lat="47.10385239" lon="6.76243245"><ele></ele><time>2014-4-16T19:15:22Z</time></trkpt>
<trkpt lat="47.10467343" lon="6.76438504"><ele></ele><time>2014-4-16T19:15:25Z</time></trkpt>
<trkpt lat="47.10495292" lon="6.76602831"><ele></ele><time>2014-4-16T19:15:28Z</time></trkpt>
<trkpt lat="47.10523276" lon="6.76773747"><ele></ele><time>2014-4-16T19:15:31Z</time></trkpt>
<trkpt lat="47.10529026" lon="6.76834277"><ele></ele><time>2014-4-16T19:15:34Z</time></trkpt>
<trkpt lat="47.10619701" lon="6.76958301"><ele></ele><time>2014-4-16T19:15:37Z</time></trkpt>
<trkpt lat="47.10642563" lon="6.77022571"><ele></ele><time>2014-4-16T19:15:40Z</time></trkpt>
<trkpt lat="47.10646207" lon="6.77030431"><ele></ele><time>2014-4-16T19:15:43Z</time></trkpt>
<trkpt lat="47.10611656" lon="6.77121766"><ele></ele><time>2014-4-16T19:15:46Z</time></trkpt>
<trkpt lat="47.10648674" lon="6.77300480"><ele></ele><time>2014-4-16T19:15:49Z</time></trkpt>
<trkpt lat="47.10635311" lon="6.77478503"><ele></ele><time>2014-4-16T19:15:52Z</time></trkpt>
<trkpt lat="47.10658360" lon="6.77575711"><ele></ele><time>2014-4-16T19:15:55Z</time></trkpt>
<trkpt lat="47.10659715" lon="6.77654742"><ele></ele><time>2014-4-16T19:15:58Z</time></trkpt>
<trkpt lat="47.10627372" lon="6.77661729"><ele></ele><time>2014-4-16T19:16:1Z</time></trkpt>
<trkpt lat="47.10592035" lon="6.77617372"><ele></ele><time>2014-4-16T19:16:4Z</time></trkpt>
<trkpt lat="47.10583450" lon="6.77688620"><ele></ele><time>2014-4-16T19:16:7Z</time></trkpt>
<trkpt lat="47.10546504" lon="6.77677219"><ele></ele><time>2014-4-16T19:16:10Z</time></trkpt>
<trkpt lat="47.10511880" lon="6.77756693"><ele></ele><time>2014-4-16T19:16:13Z</time></trkpt>
<trkpt lat="47.10520278" lon="6.77809287"><ele></ele><time>2014-4-16T19:16:16Z</time></trkpt>
<trkpt lat="47.10471700" lon="6.77808568"><ele></ele><time>2014-4-16T19:16:19Z</time></trkpt>
<trkpt lat="47.10417664" lon="6.77797377"><ele></ele><time>2014-4-16T19:16:22Z</time></trkpt>
<trkpt lat="47.10368451" lon="6.77842775"><ele></ele><time>2014-4-16T19:16:25Z</time></trkpt>
<trkpt lat="47.10395329" lon="6.77980772"><ele></ele><time>2014-4-16T19:16:28Z</time></trkpt>
<trkpt lat="47.10423861" lon="6.78093718"><ele></ele><time>2014-4-16T19:16:31Z</time></trkpt>
<trkpt lat="47.10455681" lon="6.78152611"><ele></ele><time>2014-4-16T19:16:34Z</time></trkpt>
<trkpt lat="47.10437805" lon="6.78172591"><ele></ele><time>2014-4-16T19:16:37Z</time></trkpt>
<trkpt lat="47.10415055" lon="6.78126761"><ele></ele><time>2014-4-16T19:16:40Z</time></trkpt>
<trkpt lat="47.10342834" lon="6.78081538"><ele></ele><time>2014-4-16T19:16:43Z</time></trkpt>
<trkpt lat="47.10280022" lon="6.78108657"><ele></ele><time>2014-4-16T19:16:46Z</time></trkpt>
<trkpt lat="47.10207309" lon="6.78134579"><ele></ele><time>2014-4-16T19:16:49Z</time></trkpt>
<trkpt lat="47.10321627" lon="6.78305754"><ele></ele><time>2014-4-16T19:16:52Z</time></trkpt>
<trkpt lat="47.10398232" lon="6.78489253"><ele></ele><time>2014-4-16T19:16:55Z</time></trkpt>
<trkpt lat="47.10408493" lon="6.78553681"><ele></ele><time>2014-4-16T19:16:58Z</time></trkpt>
<trkpt lat="47.10472016" lon="6.78651713"><ele></ele><time>2014-4-16T19:17:1Z</time></trkpt>
<trkpt lat="47.10440655" lon="6.78673173"><ele></ele><time>2014-4-16T19:17:4Z</time></trkpt>
<trkpt lat="47.10390878" lon="6.78619765"><ele></ele><time>2014-4-16T19:17:7Z</time></trkpt>
<trkpt lat="47.10323575" lon="6.78648250"><ele></ele><time>2014-4-16T19:17:10Z</time></trkpt>
<trkpt lat="47.10201390" lon="6.78674766"><ele></ele><time>2014-4-16T19:17:13Z</time></trkpt>
<trkpt lat="47.10139484" lon="6.78703183"><ele></ele><time>2014-4-16T19:17:16Z</time></trkpt>
<trkpt lat="47.10117475" lon="6.78787760"><ele></ele><time>2014-4-16T19:17:19Z</time></trkpt>
<trkpt lat="47.10081504" lon="6.78789514"><ele></ele><time>2014-4-16T19:17:22Z</time></trkpt>
<trkpt lat="47.10054483" lon="6.78783256"><ele></ele><time>2014-4-16T19:17:25Z</time></trkpt>
<trkpt lat="47.10009763" lon="6.78828587"><ele></ele><time>2014-4-16T19:17:28Z</time></trkpt>
<trkpt lat="47.10010961" lon="6.79040659"><ele></ele><time>2014-4-16T19:17:31Z</time></trkpt>
<trkpt lat="47.10020728" lon="6.79177541"><ele></ele><time>2014-4-16T19:17:34Z</time></trkpt>
<trkpt lat="47.10065523" lon="6.79145384"><ele></ele><time>2014-4-16T19:17:37Z</time></trkpt>
<trkpt lat="47.10087288" lon="6.79176737"><ele></ele><time>2014-4-16T19:17:40Z</time></trkpt>
<trkpt lat="47.10133686" lon="6.79269708"><ele></ele><time>2014-4-16T19:17:43Z</time></trkpt>
<trkpt lat="47.10196723" lon="6.79282122"><ele></ele><time>2014-4-16T19:17:46Z</time></trkpt>
<trkpt lat="47.10250831" lon="6.79306500"><ele></ele><time>2014-4-16T19:17:49Z</time></trkpt>
<trkpt lat="47.10282381" lon="6.79478695"><ele></ele><time>2014-4-16T19:17:52Z</time></trkpt>
<trkpt lat="47.10364438" lon="6.79675318"><ele></ele><time>2014-4-16T19:17:55Z</time></trkpt>
<trkpt lat="47.10410358" lon="6.79844713"><ele></ele><time>2014-4-16T19:17:58Z</time></trkpt>
<trkpt lat="47.10479970" lon="6.80069160"><ele></ele><time>2014-4-16T19:18:1Z</time></trkpt>
<trkpt lat="47.10502931" lon="6.80154520"><ele></ele><time>2014-4-16T19:18:4Z</time></trkpt>
<trkpt lat="47.10417439" lon="6.80147631"><ele></ele><time>2014-4-16T19:18:7Z</time></trkpt>
<trkpt lat="47.10354447" lon="6.80143111"><ele></ele><time>2014-4-16T19:18:10Z</time></trkpt>
<trkpt lat="47.10377772" lon="6.80294334"><ele></ele><time>2014-4-16T19:18:13Z</time></trkpt>
<trkpt lat="47.10400798" lon="6.80391548"><ele></ele><time>2014-4-16T19:18:16Z</time></trkpt>
<trkpt lat="47.10431343" lon="6.80384599"><ele></ele><time>2014-4-16T19:18:19Z</time></trkpt>
<trkpt lat="47.10473989" lon="6.80614642"><ele></ele><time>2014-4-16T19:18:22Z</time></trkpt>
<trkpt lat="47.10505483" lon="6.80780266"><ele></ele><time>2014-4-16T19:18:25Z</time></trkpt>
<trkpt lat="47.10515488" lon="6.80964588"><ele></ele><time>2014-4-16T19:18:28Z</time></trkpt>
<trkpt lat="47.10530420" lon="6.81063220"><ele></ele><time>2014-4-16T19:18:31Z</time></trkpt>
<trkpt lat="47.10512970" lon="6.81162231"><ele></ele><time>2014-4-16T19:18:34Z</time></trkpt>
<trkpt lat="47.10544875" lon="6.81239587"><ele></ele><time>2014-4-16T19:18:37Z</time></trkpt>
<trkpt lat="47.10571643" lon="6.81199751"><ele></ele><time>2014-4-16T19:18:40Z</time></trkpt>
<trkpt lat="47.10607737" lon="6.81220408"><ele></ele><time>2014-4-16T19:18:43Z</time></trkpt>
<trkpt lat="47.10621588" lon="6.81286119"><ele></ele><time>2014-4-16T19:18:46Z</time></trkpt>
<trkpt lat="47.10621552" lon="6.81279532"><ele></ele><time>2014-4-16T19:18:49Z</time></trkpt>
<trkpt lat="47.10616406" lon="6.81325703"><ele></ele><time>2014-4-16T19:18:52Z</time></trkpt>
<trkpt lat="47.10662529" lon="6.81371276"><ele></ele><time>2014-4-16T19:18:55Z</time></trkpt>
<trkpt lat="47.10658490" lon="6.81455640"><ele></ele><time>2014-4-16T19:18:58Z</time></trkpt>
<trkpt lat="47.10613703" lon="6.81490415"><ele></ele><time>2014-4-16T19:19:1Z</time></trkpt>
<trkpt lat="47.10518467" lon="6.81511285"><ele></ele><time>2014-4-16T19:19:4Z</time></trkpt>
<trkpt lat="47.10523285" lon="6.81570513"><ele></ele><time>2014-4-16T19:19:7Z</time></trkpt>
<trkpt lat="47.10505475" lon="6.81603656"><ele></ele><time>2014-4-16T19:19:10Z</time></trkpt>
<trkpt lat="47.10506588" lon="6.81643166"><ele></ele><time>2014-4-16T19:19:13Z</time></trkpt>
<trkpt lat="47.10488670" lon="6.81656548"><ele></ele><time>2014-4-16T19:19:16Z</time></trkpt>
<trkpt lat="47.10456182" lon="6.81637164"><ele></ele><time>2014-4-16T19:19:19Z</time></trkpt>
<trkpt lat="47.10407647" lon="6.81644315"><ele></ele><time>2014-4-16T19:19:22Z</time></trkpt>
<trkpt lat="47.10393462" lon="6.81682684"><ele></ele><time>2014-4-16T19:19:25Z</time></trkpt>
<trkpt lat="47.10285284" lon="6.81639148"><ele></ele><time>2014-4-16T19:19:28Z</time></trkpt>
<trkpt lat="47.10164506" lon="6.81594444"><ele></ele><time>2014-4-16T19:19:31Z</time></trkpt>
<trkpt lat="47.10047504" lon="6.81582630"><ele></ele><time>2014-4-16T19:19:34Z</time></trkpt>
<trkpt lat="47.10020413" lon="6.81563185"><ele></ele><time>2014-4-16T19:19:37Z</time></trkpt>
<trkpt lat="47.10015451" lon="6.81477618"><ele></ele><time>2014-4-16T19:19:40Z</time></trkpt>
<trkpt lat="47.10010840" lon="6.81456595"><ele></ele><time>2014-4-16T19:19:43Z</time></trkpt>
<trkpt lat="47.09935670" lon="6.81694581"><ele></ele><time>2014-4-16T19:19:46Z</time></trkpt>
<trkpt lat="47.09846400" lon="6.81820757"><ele></ele><time>2014-4-16T19:19:49Z</time></trkpt>
<trkpt lat="47.09707155" lon="6.82021270"><ele></ele><time>2014-4-16T19:19:52Z</time></trkpt>
<trkpt lat="47.09880501" lon="6.82307751"><ele></ele><time>2014-4-16T19:19:55Z</time></trkpt>
<trkpt lat="47.09808939" lon="6.82382339"><ele></ele><time>2014-4-16T19:19:58Z</time></trkpt>
</trkseg></trk></gpx>